Time;durP1;ratioP1;P1;durP2;ratioP2;P2;SDS_P1;SDS_P2;PMS_P1;PMS_P2;Temp;Humidity;BMP_temperature;BMP_pressure;BME280_temperature;BME280_humidity;BME280_pressure;Samples;Min_cycle;Max_cycle;Signal;HPM_P1;HPM_P2
2022/03/09 00:00:29;;;;;;;3.60;2.00;;;23.50;29.60;;;;;;5004938;28;20029;-46
2022/03/09 00:02:55;;;;;;;4.00;2.60;;;23.50;29.70;;;;;;5004914;28;20029;-46
2022/03/09 00:05:21;;;;;;;4.03;2.30;;;23.50;29.70;;;;;;5004731;28;20552;-45
2022/03/09 00:07:47;;;;;;;4.00;2.38;;;23.50;29.70;;;;;;5004201;28;20029;-45
2022/03/09 00:10:13;;;;;;;4.63;2.90;;;23.50;29.70;;;;;;5004975;28;20052;-45
2022/03/09 00:12:38;;;;;;;3.90;2.47;;;23.50;29.70;;;;;;5004700;28;20625;-45
2022/03/09 00:15:05;;;;;;;4.10;2.65;;;23.50;29.80;;;;;;5004386;28;20030;-45
2022/03/09 00:17:30;;;;;;;4.00;2.47;;;23.50;29.70;;;;;;5004950;28;20057;-45
2022/03/09 00:19:56;;;;;;;3.88;2.40;;;23.40;29.70;;;;;;5005355;28;20532;-45
2022/03/09 00:22:22;;;;;;;4.47;2.65;;;23.40;29.70;;;;;;5004735;28;20111;-45
2022/03/09 00:24:47;;;;;;;3.17;2.10;;;23.40;29.70;;;;;;5004228;28;20064;-45
2022/03/09 00:27:13;;;;;;;3.53;2.00;;;23.40;29.70;;;;;;5004199;28;20030;-45
2022/03/09 00:29:39;;;;;;;3.42;2.13;;;23.40;29.70;;;;;;5004883;28;20071;-46
2022/03/09 00:32:06;;;;;;;4.50;2.60;;;23.40;29.70;;;;;;5004671;28;20513;-45
2022/03/09 00:34:32;;;;;;;3.33;2.05;;;23.40;29.70;;;;;;5004666;28;20037;-45
2022/03/09 00:36:58;;;;;;;3.65;2.28;;;23.40;29.60;;;;;;5003079;28;20831;-45
2022/03/09 00:39:24;;;;;;;3.80;2.47;;;23.30;29.70;;;;;;5005072;28;20109;-45
2022/03/09 00:41:50;;;;;;;4.00;2.28;;;23.30;29.60;;;;;;5004415;28;20021;-45
2022/03/09 00:44:15;;;;;;;4.00;2.30;;;23.30;29.80;;;;;;5004485;28;20027;-45
2022/03/09 00:46:41;;;;;;;3.83;2.53;;;23.30;29.70;;;;;;5004002;28;20053;-45
2022/03/09 00:49:07;;;;;;;3.75;2.22;;;23.20;29.60;;;;;;5004798;28;20037;-45
2022/03/09 00:51:33;;;;;;;4.18;2.58;;;23.20;29.60;;;;;;5004728;28;20022;-46
2022/03/09 00:53:58;;;;;;;3.90;2.65;;;23.20;29.60;;;;;;5003772;28;20425;-46
2022/03/09 00:56:24;;;;;;;3.75;2.17;;;23.30;29.70;;;;;;5003744;28;20030;-45
2022/03/09 00:58:50;;;;;;;3.78;2.20;;;23.30;29.70;;;;;;5004640;28;20041;-45
2022/03/09 01:01:16;;;;;;;4.22;2.63;;;23.20;29.60;;;;;;5004178;28;20030;-45
2022/03/09 01:03:42;;;;;;;4.43;2.50;;;23.20;29.70;;;;;;5004553;28;20039;-45
2022/03/09 01:06:08;;;;;;;3.72;2.40;;;23.20;29.60;;;;;;5004246;28;20111;-45
2022/03/09 01:08:34;;;;;;;3.92;2.40;;;23.20;29.60;;;;;;5004532;28;20026;-46
2022/03/09 01:10:59;;;;;;;3.72;2.00;;;23.20;29.60;;;;;;5003759;28;20030;-46
2022/03/09 01:13:25;;;;;;;3.17;1.92;;;23.20;29.70;;;;;;5002312;28;20271;-46
2022/03/09 01:15:53;;;;;;;3.63;2.08;;;23.10;29.80;;;;;;5004508;28;20029;-45
2022/03/09 01:18:19;;;;;;;3.22;2.03;;;23.20;29.70;;;;;;5004105;28;20088;-46
2022/03/09 01:20:45;;;;;;;4.00;2.50;;;23.10;29.70;;;;;;5019509;28;20026;-45
2022/03/09 01:23:11;;;;;;;4.13;2.40;;;23.10;29.70;;;;;;5003931;28;20040;-45
2022/03/09 01:25:36;;;;;;;3.75;2.22;;;23.10;29.70;;;;;;5004290;28;20041;-45
2022/03/09 01:28:02;;;;;;;3.80;2.42;;;23.10;29.70;;;;;;5003837;28;20691;-51
2022/03/09 01:30:28;;;;;;;3.75;2.42;;;23.10;29.70;;;;;;5004338;28;20030;-46
2022/03/09 01:32:54;;;;;;;4.03;2.25;;;23.10;29.80;;;;;;5004051;28;20025;-45
2022/03/09 01:35:19;;;;;;;3.35;2.22;;;23.10;29.80;;;;;;5002313;28;20030;-45
2022/03/09 01:37:46;;;;;;;3.80;1.98;;;23.10;29.70;;;;;;5003613;28;20620;-45
2022/03/09 01:40:13;;;;;;;4.53;2.40;;;23.00;29.60;;;;;;5004117;28;20641;-45
2022/03/09 01:42:39;;;;;;;3.25;2.03;;;23.00;29.60;;;;;;5003309;28;20448;-45
2022/03/09 01:45:07;;;;;;;3.75;2.33;;;23.00;29.70;;;;;;5003454;28;20038;-45
2022/03/09 01:47:33;;;;;;;3.50;2.00;;;23.00;29.70;;;;;;5003583;28;20123;-45
2022/03/09 01:49:59;;;;;;;3.47;2.10;;;23.00;29.70;;;;;;5003085;28;20037;-45
2022/03/09 01:52:26;;;;;;;3.95;2.58;;;23.00;29.70;;;;;;5003644;28;20162;-45
2022/03/09 01:54:53;;;;;;;3.47;2.13;;;23.00;29.70;;;;;;5016928;28;20691;-44
2022/03/09 01:57:22;;;;;;;4.28;2.70;;;23.00;29.70;;;;;;5003903;28;20712;-45
2022/03/09 01:59:52;;;;;;;5.18;2.30;;;23.00;29.70;;;;;;5007660;28;20541;-45
2022/03/09 02:02:18;;;;;;;3.80;2.30;;;23.00;29.80;;;;;;5007076;28;20037;-46
2022/03/09 02:04:45;;;;;;;3.45;1.90;;;23.00;29.70;;;;;;5005888;28;20105;-45
2022/03/09 02:07:11;;;;;;;3.80;2.28;;;22.90;29.70;;;;;;5006945;28;20108;-46
2022/03/09 02:09:46;;;;;;;3.00;1.90;;;22.90;29.70;;;;;;5007467;28;20018;-45
2022/03/09 02:12:15;;;;;;;3.83;2.30;;;22.90;29.70;;;;;;5007354;28;20030;-44
2022/03/09 02:14:51;;;;;;;3.88;2.25;;;22.90;29.80;;;;;;5006957;28;20765;-45
2022/03/09 02:17:19;;;;;;;4.20;2.22;;;22.90;29.80;;;;;;5007443;28;20034;-45
2022/03/09 02:19:48;;;;;;;3.63;2.00;;;22.90;29.80;;;;;;5007039;28;20720;-45
2022/03/09 02:22:19;;;;;;;2.92;1.83;;;22.90;29.80;;;;;;5006942;28;20048;-45
2022/03/09 02:24:50;;;;;;;4.28;2.38;;;22.80;29.70;;;;;;5007036;28;20026;-46
2022/03/09 02:27:16;;;;;;;3.72;2.25;;;22.80;29.70;;;;;;5022365;28;20460;-44
2022/03/09 02:29:42;;;;;;;3.63;2.15;;;22.80;29.70;;;;;;5007356;28;20517;-45
2022/03/09 02:32:08;;;;;;;3.35;2.08;;;22.80;29.70;;;;;;5006138;28;20076;-46
2022/03/09 02:34:35;;;;;;;3.88;2.22;;;22.80;29.70;;;;;;5006754;28;20070;-45
2022/03/09 02:37:01;;;;;;;4.03;2.35;;;22.80;29.70;;;;;;5006958;28;20033;-45
2022/03/09 02:39:27;;;;;;;3.63;2.20;;;22.80;29.70;;;;;;5006969;28;20056;-45
2022/03/09 02:41:52;;;;;;;4.10;2.58;;;22.80;29.70;;;;;;5004806;28;20029;-44
2022/03/09 02:44:19;;;;;;;4.07;2.35;;;22.80;29.70;;;;;;5006416;28;20022;-49
2022/03/09 02:46:47;;;;;;;3.90;2.20;;;22.80;29.80;;;;;;5005652;28;20066;-45
2022/03/09 02:49:13;;;;;;;3.72;2.15;;;22.80;29.70;;;;;;5006826;28;20038;-44
2022/03/09 02:51:39;;;;;;;3.58;2.33;;;22.70;29.70;;;;;;5006925;28;20114;-45
2022/03/09 02:54:05;;;;;;;3.70;2.30;;;22.80;29.70;;;;;;5006565;28;20038;-44
2022/03/09 02:56:31;;;;;;;3.58;2.03;;;22.80;29.70;;;;;;5005423;28;20053;-44
2022/03/09 02:58:57;;;;;;;3.40;2.13;;;22.80;29.70;;;;;;5005837;28;20029;-44
2022/03/09 03:01:23;;;;;;;4.20;2.50;;;22.70;29.70;;;;;;5006436;28;20030;-45
2022/03/09 03:03:49;;;;;;;3.47;2.13;;;22.70;29.70;;;;;;5020783;28;20065;-44
2022/03/09 03:06:15;;;;;;;3.63;2.28;;;22.70;29.70;;;;;;5006073;28;20053;-44
2022/03/09 03:08:41;;;;;;;5.15;2.50;;;22.70;29.80;;;;;;5006164;28;20037;-44
2022/03/09 03:11:08;;;;;;;3.80;2.42;;;22.60;29.70;;;;;;5005615;28;20370;-44
2022/03/09 03:13:39;;;;;;;3.47;2.10;;;22.70;29.80;;;;;;5005989;28;20022;-43
2022/03/09 03:16:06;;;;;;;3.80;2.08;;;22.70;29.80;;;;;;5005324;28;20040;-45
2022/03/09 03:18:32;;;;;;;4.78;2.97;;;22.70;29.70;;;;;;5004145;28;20105;-44
2022/03/09 03:20:58;;;;;;;4.43;2.40;;;22.60;29.70;;;;;;5005983;28;20057;-44
2022/03/09 03:23:25;;;;;;;3.45;2.10;;;22.60;29.70;;;;;;5006339;28;20061;-44
2022/03/09 03:25:52;;;;;;;3.80;2.38;;;22.70;29.80;;;;;;5005480;28;20874;-44
2022/03/09 03:28:18;;;;;;;3.97;2.38;;;22.60;29.70;;;;;;5004798;28;20136;-44
2022/03/09 03:30:44;;;;;;;3.30;2.20;;;22.60;29.70;;;;;;5005212;28;20720;-44
2022/03/09 03:33:12;;;;;;;3.55;2.30;;;22.60;29.70;;;;;;5003993;28;20052;-44
2022/03/09 03:35:38;;;;;;;3.95;2.63;;;22.60;29.70;;;;;;5006001;28;20030;-44
2022/03/09 03:38:04;;;;;;;3.90;2.53;;;22.60;29.70;;;;;;5005714;28;20389;-44
2022/03/09 03:40:30;;;;;;;3.50;2.10;;;22.60;29.70;;;;;;5006142;28;20210;-44
2022/03/09 03:42:56;;;;;;;3.95;2.30;;;22.60;29.70;;;;;;5005309;28;20033;-44
2022/03/09 03:45:22;;;;;;;4.35;2.45;;;22.60;29.70;;;;;;5004758;28;20038;-44
2022/03/09 03:47:47;;;;;;;3.67;2.20;;;22.60;29.70;;;;;;5005103;28;20030;-44
2022/03/09 03:50:13;;;;;;;3.42;2.17;;;22.50;30.30;;;;;;5005733;28;20026;-44
2022/03/09 03:52:39;;;;;;;4.13;2.67;;;22.50;29.70;;;;;;5005166;28;20128;-44
2022/03/09 03:55:06;;;;;;;3.33;2.10;;;22.60;29.70;;;;;;5001066;28;20121;-44
2022/03/09 03:57:32;;;;;;;3.80;2.20;;;22.50;29.70;;;;;;5004124;28;20088;-44
2022/03/09 03:59:57;;;;;;;3.22;1.95;;;22.50;29.70;;;;;;5004993;28;20084;-46
2022/03/09 04:02:23;;;;;;;4.13;2.28;;;22.50;29.70;;;;;;5005673;28;20038;-44
2022/03/09 04:04:50;;;;;;;4.13;2.42;;;22.50;29.70;;;;;;5004577;28;20036;-44
2022/03/09 04:07:16;;;;;;;3.88;2.30;;;22.50;29.70;;;;;;5004110;28;20033;-44
2022/03/09 04:09:42;;;;;;;3.85;2.58;;;22.50;29.70;;;;;;5002951;28;20033;-44
2022/03/09 04:12:09;;;;;;;3.72;2.40;;;22.50;29.70;;;;;;5004571;28;20022;-44
2022/03/09 04:14:35;;;;;;;4.57;2.40;;;22.40;29.70;;;;;;5004132;28;20041;-44
2022/03/09 04:17:01;;;;;;;4.13;2.55;;;22.40;29.60;;;;;;5004357;28;20401;-45
2022/03/09 04:19:26;;;;;;;3.63;2.22;;;22.50;29.70;;;;;;5005018;28;20029;-44
2022/03/09 04:21:52;;;;;;;4.47;2.75;;;22.40;29.70;;;;;;5004472;28;20548;-44
2022/03/09 04:24:18;;;;;;;3.65;2.22;;;22.40;29.60;;;;;;5004094;28;20030;-44
2022/03/09 04:26:44;;;;;;;3.85;2.28;;;22.40;29.70;;;;;;5003580;28;20660;-44
2022/03/09 04:29:10;;;;;;;3.30;2.10;;;22.40;29.60;;;;;;4984968;28;20474;-43
2022/03/09 04:31:36;;;;;;;3.38;2.20;;;22.40;29.70;;;;;;4984419;28;20031;-44
2022/03/09 04:34:02;;;;;;;3.95;2.58;;;22.40;29.60;;;;;;4983019;28;20033;-44
2022/03/09 04:36:28;;;;;;;4.15;2.60;;;22.40;29.70;;;;;;4985408;28;20058;-44
2022/03/09 04:38:54;;;;;;;3.90;2.63;;;22.40;29.70;;;;;;4985007;28;20486;-44
2022/03/09 04:41:20;;;;;;;4.35;2.58;;;22.40;29.70;;;;;;4986841;28;20477;-44
2022/03/09 04:43:46;;;;;;;3.28;2.00;;;22.40;29.70;;;;;;5004300;28;20038;-44
2022/03/09 04:46:12;;;;;;;4.30;2.83;;;22.40;29.70;;;;;;5004432;28;20481;-44
2022/03/09 04:48:38;;;;;;;4.00;2.80;;;22.40;29.70;;;;;;5003624;28;20025;-44
2022/03/09 04:51:04;;;;;;;4.07;2.40;;;22.30;29.60;;;;;;5004471;28;20707;-44
2022/03/09 04:53:31;;;;;;;3.88;2.75;;;22.40;29.70;;;;;;5004637;28;20022;-44
2022/03/09 04:55:56;;;;;;;3.83;2.28;;;22.30;29.70;;;;;;5003719;28;20018;-44
2022/03/09 04:58:23;;;;;;;4.00;2.25;;;22.30;29.70;;;;;;5003767;28;20576;-44
2022/03/09 05:00:49;;;;;;;3.65;2.60;;;22.30;29.70;;;;;;5003339;28;20041;-44
2022/03/09 05:03:15;;;;;;;5.07;2.80;;;22.30;29.60;;;;;;5017701;28;20057;-44
2022/03/09 05:05:41;;;;;;;3.90;2.50;;;22.30;29.70;;;;;;5003544;28;20036;-45
2022/03/09 05:08:07;;;;;;;3.65;2.50;;;22.30;30.30;;;;;;5003151;28;20489;-44
2022/03/09 05:10:32;;;;;;;4.10;2.67;;;22.30;29.70;;;;;;5004457;28;20026;-45
2022/03/09 05:12:58;;;;;;;4.30;2.60;;;22.30;29.70;;;;;;5004440;28;20137;-45
2022/03/09 05:15:24;;;;;;;3.50;2.13;;;22.30;29.70;;;;;;5004289;28;20034;-45
2022/03/09 05:17:50;;;;;;;3.65;2.28;;;22.30;29.70;;;;;;5004132;28;20026;-45
2022/03/09 05:20:15;;;;;;;3.85;2.42;;;22.30;29.80;;;;;;5004829;28;20030;-44
2022/03/09 05:22:41;;;;;;;3.85;2.42;;;22.30;29.80;;;;;;5004372;28;20076;-44
2022/03/09 05:25:08;;;;;;;4.20;2.45;;;22.30;30.00;;;;;;5003760;28;20092;-44
2022/03/09 05:27:35;;;;;;;4.13;2.90;;;22.30;30.00;;;;;;5003713;28;20548;-44
2022/03/09 05:30:01;;;;;;;4.13;2.72;;;22.30;30.10;;;;;;5003082;28;20076;-44
2022/03/09 05:32:27;;;;;;;3.90;2.50;;;22.30;30.80;;;;;;5003877;28;20022;-44
2022/03/09 05:34:53;;;;;;;4.72;2.78;;;22.40;30.10;;;;;;5006195;28;20033;-44
2022/03/09 05:37:19;;;;;;;3.47;2.22;;;22.40;30.10;;;;;;5007269;28;20069;-44
2022/03/09 05:39:45;;;;;;;4.00;2.60;;;22.50;30.20;;;;;;5007366;28;20059;-45
2022/03/09 05:42:11;;;;;;;4.60;2.45;;;22.50;30.10;;;;;;5006040;28;20796;-45
2022/03/09 05:44:36;;;;;;;4.07;2.60;;;22.60;30.10;;;;;;5006845;28;20088;-44
2022/03/09 05:47:02;;;;;;;4.05;2.40;;;22.60;30.10;;;;;;5005947;28;20022;-44
2022/03/09 05:49:28;;;;;;;3.47;2.45;;;22.70;30.10;;;;;;5006887;28;20026;-44
2022/03/09 05:51:54;;;;;;;4.28;2.53;;;22.80;30.00;;;;;;5006987;28;20025;-44
2022/03/09 05:54:20;;;;;;;4.25;2.63;;;22.90;30.00;;;;;;5005785;28;20110;-45
2022/03/09 05:56:46;;;;;;;5.32;2.80;;;22.90;29.80;;;;;;5004626;28;20040;-44
2022/03/09 05:59:12;;;;;;;4.25;2.35;;;23.00;29.80;;;;;;5020514;28;20042;-45
2022/03/09 06:01:38;;;;;;;4.63;2.90;;;23.00;29.70;;;;;;5006326;28;20067;-44
2022/03/09 06:04:04;;;;;;;3.90;2.50;;;23.10;29.90;;;;;;5005821;28;20041;-45
2022/03/09 06:06:31;;;;;;;4.72;2.88;;;23.20;30.20;;;;;;5021196;28;20051;-44
2022/03/09 06:08:57;;;;;;;8.82;3.60;;;23.20;30.20;;;;;;5006388;28;20093;-44
2022/03/09 06:11:22;;;;;;;6.28;2.85;;;23.30;30.40;;;;;;5003038;28;20113;-44
2022/03/09 06:13:48;;;;;;;7.05;3.40;;;23.40;30.40;;;;;;5006575;28;20104;-45
2022/03/09 06:16:14;;;;;;;6.18;3.30;;;23.50;30.30;;;;;;5004516;28;20105;-44
2022/03/09 06:18:40;;;;;;;6.13;3.13;;;23.50;30.60;;;;;;5006239;28;20029;-45
2022/03/09 06:21:06;;;;;;;7.28;3.72;;;23.60;31.10;;;;;;5006139;28;20018;-44
2022/03/09 06:23:32;;;;;;;8.02;3.17;;;23.70;31.30;;;;;;5005571;28;20014;-45
2022/03/09 06:25:58;;;;;;;6.70;3.75;;;23.80;31.50;;;;;;5005387;28;20018;-44
2022/03/09 06:28:24;;;;;;;6.68;3.20;;;23.80;31.50;;;;;;5006124;28;20561;-44
2022/03/09 06:30:49;;;;;;;8.18;3.40;;;23.90;31.40;;;;;;5002920;28;20036;-44
2022/03/09 06:33:15;;;;;;;6.05;3.55;;;24.00;31.10;;;;;;5004784;28;20014;-45
2022/03/09 06:35:41;;;;;;;8.82;4.18;;;24.00;31.00;;;;;;5005991;28;20022;-44
2022/03/09 06:38:07;;;;;;;6.70;3.60;;;24.10;30.80;;;;;;5005463;28;20115;-45
2022/03/09 06:40:33;;;;;;;6.57;3.35;;;24.20;30.60;;;;;;5005194;28;20041;-45
2022/03/09 06:42:59;;;;;;;6.72;3.58;;;24.20;30.40;;;;;;5004273;28;20033;-45
2022/03/09 06:45:27;;;;;;;5.90;3.13;;;24.30;30.30;;;;;;5005004;28;20116;-45
2022/03/09 06:47:52;;;;;;;6.82;3.38;;;24.30;30.10;;;;;;5004931;28;20037;-45
2022/03/09 06:50:18;;;;;;;6.03;3.70;;;24.40;29.90;;;;;;5005372;28;20034;-45
2022/03/09 06:52:44;;;;;;;5.40;3.17;;;24.50;29.80;;;;;;5005292;28;20145;-45
2022/03/09 06:55:12;;;;;;;6.68;3.38;;;24.50;30.00;;;;;;5002308;28;20497;-44
2022/03/09 06:57:40;;;;;;;7.25;3.58;;;24.60;30.10;;;;;;5003963;28;20033;-44
2022/03/09 07:00:08;;;;;;;8.70;3.38;;;24.70;29.70;;;;;;5005540;28;20029;-44
2022/03/09 07:02:34;;;;;;;7.50;3.35;;;24.70;29.80;;;;;;5007660;28;20087;-44
2022/03/09 07:05:00;;;;;;;6.65;3.58;;;24.80;29.80;;;;;;5005702;28;20042;-46
2022/03/09 07:07:26;;;;;;;5.80;3.35;;;24.70;29.60;;;;;;5002574;28;20033;-44
2022/03/09 07:09:51;;;;;;;6.20;3.30;;;24.80;29.50;;;;;;5003022;28;20018;-44
2022/03/09 07:12:17;;;;;;;6.90;3.17;;;24.80;29.40;;;;;;5004400;28;20036;-44
2022/03/09 07:14:43;;;;;;;6.75;3.35;;;24.80;29.40;;;;;;5003725;28;20028;-44
2022/03/09 07:17:08;;;;;;;6.32;3.80;;;24.90;29.50;;;;;;5004289;28;20029;-44
2022/03/09 07:19:34;;;;;;;8.20;3.28;;;24.90;29.30;;;;;;5017902;28;20014;-44
2022/03/09 07:22:00;;;;;;;7.30;3.72;;;24.90;29.40;;;;;;5004243;28;20277;-47
2022/03/09 07:24:26;;;;;;;9.82;4.03;;;25.00;29.40;;;;;;5004748;28;20044;-46
2022/03/09 07:26:53;;;;;;;7.78;4.25;;;24.90;29.30;;;;;;5002980;28;20156;-45
2022/03/09 07:29:20;;;;;;;7.88;4.13;;;25.00;29.20;;;;;;5004427;28;20037;-45
2022/03/09 07:31:46;;;;;;;8.02;4.03;;;25.00;29.10;;;;;;5019665;28;20053;-46
2022/03/09 07:34:11;;;;;;;7.55;4.10;;;25.00;29.00;;;;;;5003816;28;20104;-46
2022/03/09 07:36:37;;;;;;;7.68;4.63;;;25.00;28.80;;;;;;5003504;28;20183;-45
2022/03/09 07:39:03;;;;;;;7.30;3.72;;;25.00;28.90;;;;;;5004411;28;20444;-44
2022/03/09 07:41:29;;;;;;;5.95;3.88;;;25.10;28.80;;;;;;5004425;28;20172;-44
2022/03/09 07:43:54;;;;;;;7.38;4.10;;;25.10;28.80;;;;;;5004275;28;20421;-45
2022/03/09 07:46:20;;;;;;;7.78;3.90;;;25.10;28.80;;;;;;5004658;28;20045;-45
2022/03/09 07:48:46;;;;;;;6.50;4.05;;;25.10;28.80;;;;;;5004175;28;20029;-45
2022/03/09 07:51:11;;;;;;;8.20;3.80;;;25.20;28.60;;;;;;5004430;28;20026;-45
2022/03/09 07:53:42;;;;;;;8.70;4.57;;;25.20;28.70;;;;;;5004190;28;20052;-45
2022/03/09 07:56:12;;;;;;;8.15;3.88;;;25.10;28.60;;;;;;5002843;28;20037;-45
2022/03/09 07:58:39;;;;;;;7.53;3.67;;;25.20;28.60;;;;;;5003971;28;20541;-44
2022/03/09 08:01:05;;;;;;;8.52;4.15;;;25.20;28.60;;;;;;5002748;28;20045;-44
2022/03/09 08:03:32;;;;;;;7.88;4.00;;;25.20;28.50;;;;;;5004418;28;20026;-46
2022/03/09 08:05:58;;;;;;;7.30;4.25;;;25.20;28.50;;;;;;5004290;28;20025;-44
2022/03/09 08:08:23;;;;;;;6.65;3.72;;;25.20;28.50;;;;;;5004578;28;20049;-43
2022/03/09 08:10:50;;;;;;;7.07;3.78;;;25.20;28.50;;;;;;5004127;28;20496;-44
2022/03/09 08:13:16;;;;;;;7.82;4.22;;;25.30;28.40;;;;;;5003895;28;20034;-46
2022/03/09 08:15:41;;;;;;;8.25;4.07;;;25.30;28.50;;;;;;5004216;28;20222;-45
2022/03/09 08:18:07;;;;;;;7.18;3.97;;;25.30;28.60;;;;;;5002099;28;20076;-45
2022/03/09 08:20:33;;;;;;;10.35;4.95;;;25.30;28.60;;;;;;5002615;28;20140;-44
2022/03/09 08:22:59;;;;;;;9.75;4.95;;;25.30;28.60;;;;;;5004542;28;20192;-45
2022/03/09 08:25:25;;;;;;;12.30;5.35;;;25.40;28.70;;;;;;5004289;28;20117;-45
2022/03/09 08:27:53;;;;;;;9.52;4.95;;;25.40;28.70;;;;;;5003663;28;20532;-45
2022/03/09 08:30:18;;;;;;;9.40;4.80;;;25.40;28.70;;;;;;5003526;28;20041;-45
2022/03/09 08:32:44;;;;;;;12.50;5.28;;;25.40;28.70;;;;;;5003154;28;20030;-45
2022/03/09 08:35:10;;;;;;;9.43;5.03;;;25.40;28.60;;;;;;5003625;28;20014;-45
2022/03/09 08:37:36;;;;;;;10.00;5.00;;;25.40;28.70;;;;;;5003501;28;20314;-45
2022/03/09 08:40:03;;;;;;;9.73;5.00;;;25.40;28.70;;;;;;5004278;28;20029;-44
2022/03/09 08:42:29;;;;;;;11.68;4.70;;;25.40;28.90;;;;;;5003584;28;20049;-45
2022/03/09 08:44:55;;;;;;;10.13;5.07;;;25.40;29.00;;;;;;5003598;28;20022;-45
2022/03/09 08:47:20;;;;;;;8.75;4.60;;;25.40;29.20;;;;;;5003204;28;20042;-45
2022/03/09 08:49:46;;;;;;;7.90;4.85;;;25.40;29.40;;;;;;5002808;28;20033;-45
2022/03/09 08:52:13;;;;;;;8.48;5.03;;;25.40;29.30;;;;;;5004043;28;20042;-45
2022/03/09 08:54:42;;;;;;;12.10;5.18;;;25.40;29.40;;;;;;5004534;28;20022;-45
2022/03/09 08:57:08;;;;;;;6.78;4.43;;;25.40;29.50;;;;;;5004177;28;20432;-45
2022/03/09 08:59:34;;;;;;;9.18;4.93;;;25.40;29.50;;;;;;5003979;28;20034;-44
2022/03/09 09:02:00;;;;;;;8.10;4.70;;;25.40;29.40;;;;;;5003054;28;20053;-45
2022/03/09 09:04:26;;;;;;;11.02;4.80;;;25.40;29.40;;;;;;5018796;28;20030;-45
2022/03/09 09:06:51;;;;;;;7.35;4.10;;;25.40;29.50;;;;;;5007859;28;20054;-45
2022/03/09 09:09:17;;;;;;;7.90;4.40;;;25.40;29.50;;;;;;5004081;28;20022;-45
2022/03/09 09:11:47;;;;;;;6.60;3.97;;;25.40;29.30;;;;;;5003877;28;20034;-44
2022/03/09 09:14:13;;;;;;;8.80;4.75;;;25.40;29.30;;;;;;5003671;28;20030;-44
2022/03/09 09:16:41;;;;;;;10.25;4.43;;;25.40;29.60;;;;;;5003615;28;20033;-46
2022/03/09 09:19:08;;;;;;;9.38;4.60;;;25.40;29.40;;;;;;5004377;28;20105;-46
2022/03/09 09:21:33;;;;;;;8.40;3.85;;;25.40;29.10;;;;;;5003855;28;20032;-46
2022/03/09 09:23:59;;;;;;;7.32;4.53;;;25.40;29.00;;;;;;5018564;28;20104;-46
2022/03/09 09:26:25;;;;;;;10.32;4.35;;;25.40;29.10;;;;;;5001878;28;20160;-45
2022/03/09 09:28:50;;;;;;;8.60;4.72;;;25.40;29.30;;;;;;5004174;28;20529;-46
2022/03/09 09:31:16;;;;;;;7.28;4.22;;;25.40;29.60;;;;;;5018313;28;20080;-44
2022/03/09 09:33:42;;;;;;;8.48;4.47;;;25.40;29.70;;;;;;5003779;28;20277;-44
2022/03/09 09:36:08;;;;;;;7.25;3.70;;;25.40;29.80;;;;;;5003883;28;20022;-47
2022/03/09 09:38:33;;;;;;;8.30;4.47;;;25.40;29.90;;;;;;5003073;28;20129;-45
2022/03/09 09:40:59;;;;;;;9.55;4.93;;;25.40;30.10;;;;;;5003288;28;20433;-45
2022/03/09 09:43:25;;;;;;;6.75;3.60;;;25.40;30.10;;;;;;5003251;28;20517;-46
2022/03/09 09:45:52;;;;;;;8.63;4.03;;;25.40;30.20;;;;;;5003915;28;20053;-45
2022/03/09 09:48:19;;;;;;;6.90;3.80;;;25.40;30.30;;;;;;5002977;28;20053;-46
2022/03/09 09:50:46;;;;;;;8.00;4.47;;;25.30;30.00;;;;;;5002947;28;20053;-46
2022/03/09 09:53:14;;;;;;;8.48;4.20;;;25.40;29.90;;;;;;5002527;28;20105;-44
2022/03/09 09:55:42;;;;;;;10.05;4.35;;;25.40;30.10;;;;;;5001936;28;20113;-45
2022/03/09 09:58:09;;;;;;;8.13;4.07;;;25.40;30.30;;;;;;5003043;28;20034;-46
2022/03/09 10:00:35;;;;;;;8.07;4.43;;;25.40;30.20;;;;;;5003338;28;20473;-44
2022/03/09 10:03:03;;;;;;;6.43;3.80;;;25.40;30.10;;;;;;5002868;28;20040;-45
2022/03/09 10:05:29;;;;;;;9.30;4.15;;;25.40;30.20;;;;;;5002650;28;20054;-47
2022/03/09 10:08:04;;;;;;;6.32;3.92;;;25.40;30.20;;;;;;5003402;28;20080;-45
2022/03/09 10:10:42;;;;;;;7.10;3.75;;;25.40;30.10;;;;;;5003072;28;20413;-45
2022/03/09 10:13:26;;;;;;;9.02;4.32;;;25.40;30.20;;;;;;5003122;28;20036;-46
2022/03/09 10:16:10;;;;;;;7.75;4.13;;;25.40;30.30;;;;;;5002748;28;20044;-46
2022/03/09 10:18:36;;;;;;;8.30;3.97;;;25.40;30.60;;;;;;5003899;28;20333;-46
2022/03/09 10:21:40;;;;;;;9.82;3.83;;;25.40;30.60;;;;;;5005586;28;20037;-46
2022/03/09 10:24:11;;;;;;;8.48;3.75;;;25.40;30.70;;;;;;5022106;28;20128;-45
2022/03/09 10:26:40;;;;;;;9.43;4.05;;;25.40;31.10;;;;;;5002370;28;20050;-47
2022/03/09 10:29:08;;;;;;;9.43;4.93;;;25.40;31.50;;;;;;5005823;28;20109;-45
2022/03/09 10:31:44;;;;;;;9.93;4.13;;;25.40;31.40;;;;;;5006330;28;20048;-46
2022/03/09 10:34:21;;;;;;;9.02;4.00;;;25.40;31.50;;;;;;5004484;28;20014;-45
2022/03/09 10:37:07;;;;;;;8.38;4.38;;;25.40;31.40;;;;;;5006692;28;20167;-46
2022/03/09 10:39:37;;;;;;;8.15;4.03;;;25.40;31.50;;;;;;5004659;28;20038;-45
2022/03/09 10:42:25;;;;;;;9.98;4.60;;;25.40;31.90;;;;;;5001832;28;20248;-45
2022/03/09 10:44:52;;;;;;;10.60;4.28;;;25.40;31.90;;;;;;5005255;28;20046;-45
2022/03/09 10:47:37;;;;;;;8.07;3.88;;;25.40;32.30;;;;;;5006308;28;20058;-45
2022/03/09 10:50:21;;;;;;;7.57;4.15;;;25.40;32.40;;;;;;5006343;28;20104;-46
2022/03/09 10:53:02;;;;;;;8.07;4.53;;;25.40;32.10;;;;;;5005903;28;20030;-45
2022/03/09 10:55:36;;;;;;;24.25;18.92;;;25.50;31.90;;;;;;5004137;28;20022;-44
2022/03/09 10:58:19;;;;;;;50.05;35.72;;;25.40;32.40;;;;;;5006385;28;20342;-44
2022/03/09 11:00:53;;;;;;;123.47;83.95;;;25.40;32.10;;;;;;5005731;28;20473;-46
2022/03/09 11:03:24;;;;;;;184.88;118.78;;;25.40;31.50;;;;;;5005434;28;20022;-45
2022/03/09 11:05:54;;;;;;;230.80;138.52;;;25.40;31.30;;;;;;5006117;28;20136;-45
2022/03/09 11:08:29;;;;;;;256.40;149.43;;;25.40;31.10;;;;;;5006456;28;20104;-45
2022/03/09 11:10:58;;;;;;;218.73;130.65;;;25.40;31.00;;;;;;5006073;28;20052;-44
2022/03/09 11:13:24;;;;;;;209.90;123.10;;;25.40;30.40;;;;;;5005963;28;20033;-44
2022/03/09 11:15:51;;;;;;;176.77;108.15;;;25.30;30.30;;;;;;5004748;28;20671;-45
2022/03/09 11:18:22;;;;;;;143.98;89.63;;;25.30;29.70;;;;;;5006266;28;20064;-45
2022/03/09 11:20:49;;;;;;;135.23;84.40;;;25.20;29.30;;;;;;5005626;28;20084;-44
2022/03/09 11:23:16;;;;;;;117.03;69.85;;;25.20;28.80;;;;;;5005811;28;20353;-46
2022/03/09 11:25:49;;;;;;;108.57;64.68;;;25.20;28.90;;;;;;5002452;28;20448;-51
2022/03/09 11:28:20;;;;;;;;;;;25.20;30.20;;;;;;4989468;28;20142;-51
2022/03/09 11:30:58;;;;;;;87.35;53.55;;;25.20;31.50;;;;;;5005400;28;19948;-54
2022/03/09 11:33:50;;;;;;;87.85;52.03;;;25.10;30.10;;;;;;5005036;28;20038;-54
2022/03/09 11:36:21;;;;;;;81.30;42.92;;;25.10;28.20;;;;;;5005723;28;20026;-51
2022/03/09 11:38:52;;;;;;;62.17;33.95;;;25.10;27.00;;;;;;5005062;28;20672;-51
2022/03/09 11:41:26;;;;;;;59.15;31.63;;;25.10;27.00;;;;;;5005243;28;20033;-50
2022/03/09 11:43:54;;;;;;;58.10;29.65;;;25.00;26.80;;;;;;5004968;28;20443;-54
2022/03/09 11:46:21;;;;;;;53.20;31.52;;;25.10;27.40;;;;;;5005292;28;20030;-54
2022/03/09 11:48:52;;;;;;;61.40;34.80;;;25.10;27.80;;;;;;5004915;28;20040;-53
2022/03/09 11:51:20;;;;;;;56.53;33.90;;;25.00;27.90;;;;;;5004969;28;20048;-53
2022/03/09 11:53:52;;;;;;;51.30;32.67;;;25.10;29.30;;;;;;5019849;28;20026;-54
2022/03/09 11:56:33;;;;;;;46.88;29.58;;;25.00;30.00;;;;;;5003753;28;20120;-53
2022/03/09 11:59:11;;;;;;;44.75;26.73;;;25.00;30.50;;;;;;5018580;28;20026;-49
2022/03/09 12:02:09;;;;;;;38.80;24.55;;;25.00;30.80;;;;;;5004162;28;20554;-50
2022/03/09 12:04:50;;;;;;;35.22;20.67;;;25.00;31.00;;;;;;4988004;28;20030;-52
2022/03/09 12:07:37;;;;;;;26.30;15.90;;;25.00;31.00;;;;;;5004328;28;20378;-50
2022/03/09 12:10:09;;;;;;;21.83;14.07;;;25.00;30.50;;;;;;4997379;28;20062;-49
2022/03/09 12:12:37;;;;;;;19.40;11.95;;;25.00;30.00;;;;;;5003570;28;20091;-49
2022/03/09 12:15:02;;;;;;;71.50;62.25;;;25.00;29.70;;;;;;5002709;28;20022;-53
2022/03/09 12:17:37;;;;;;;384.77;343.02;;;24.90;29.50;;;;;;5004543;28;20040;-54
2022/03/09 12:20:25;;;;;;;539.63;481.33;;;24.90;29.00;;;;;;5003068;28;20105;-54
2022/03/09 12:22:57;;;;;;;545.90;486.02;;;24.90;29.40;;;;;;5003475;28;20668;-52
2022/03/09 12:25:48;;;;;;;601.90;527.35;;;24.90;29.30;;;;;;5004159;28;20106;-51
2022/03/09 12:28:28;;;;;;;559.53;487.15;;;24.90;29.40;;;;;;5002520;28;20026;-51
2022/03/09 12:30:59;;;;;;;534.72;455.73;;;24.90;29.30;;;;;;5003708;28;20032;-51
2022/03/09 12:33:30;;;;;;;497.27;416.77;;;24.90;29.20;;;;;;5003517;28;20026;-50
2022/03/09 12:36:15;;;;;;;460.42;377.90;;;24.90;29.00;;;;;;5002602;28;20025;-51
2022/03/09 12:38:47;;;;;;;405.13;318.52;;;24.90;29.20;;;;;;5002464;28;20085;-53
2022/03/09 12:41:34;;;;;;;370.67;288.23;;;24.90;30.00;;;;;;5003845;28;20026;-52
2022/03/09 12:44:08;;;;;;;327.15;253.40;;;24.90;29.90;;;;;;5001836;28;20022;-51
2022/03/09 12:46:35;;;;;;;231.45;173.52;;;24.90;29.90;;;;;;5003833;28;20116;-51